Flight Track Log - Related Links

Times and Time Zones

All times are in EDT time to prevent confusion due to time zone crossing. See the AAL1358 flight status page for this flight to view local times or setup timezone preferences in your user account.

Time Position Orientation Groundspeed Altitude Reporting Facility
EDT Latitude Longitude Course Direction KTS MPH feet Rate Location/Type
Sat 11:25:47 PM 41.9850 -87.9270 282° West 160 184 1,000  Level FlightAware ADS-B
Sat 11:26:02 PM 41.9940 -87.9360 323° Northwest 157 181 2,000 2,533 Climbing FlightAware ADS-B
Sat 11:26:32 PM 42.0130 -87.9550 323° Northwest 200 230 2,900 1,680 Climbing FlightAware ADS-B
Sat 11:26:52 PM 42.0320 -87.9660 337° Northwest 242 278 3,400 2,509 Climbing FlightAware ADS-B
Sat 11:27:27 PM 42.0650 -87.9420 28° Northeast 257 296 5,200 3,600 Climbing FlightAware ADS-B
Sat 11:27:52 PM 42.0780 -87.9070 63° Northeast 261 300 7,000 4,364 Climbing FlightAware ADS-B
Sat 11:28:22 PM 42.0920 -87.8630 67° East 263 303 9,200 4,114 Climbing FlightAware ADS-B
Sat 11:29:02 PM 42.1100 -87.7940 71° East 283 326 11,800 3,882 Climbing FlightAware ADS-B
Sat 11:29:47 PM 42.1190 -87.7210 81° East 283 326 14,700 2,824 Climbing FlightAware ADS-B
Sat 11:30:27 PM 42.1250 -87.6380 84° East 341 392 15,800 2,175 Climbing FlightAware ADS-B
Sat 11:31:07 PM 42.1280 -87.5490 87° East 365 420 17,600 3,106 Climbing FlightAware ADS-B
Sat 11:31:52 PM 42.1290 -87.4410 89° East 373 429 20,200 3,200 Climbing FlightAware ADS-B
Sat 11:32:37 PM 42.1290 -87.3370 90° East 380 437 22,400 2,541 Climbing FlightAware ADS-B
Sat 11:33:17 PM 42.1310 -87.2410 88° East 398 458 23,800 2,025 Climbing FlightAware ADS-B
Sat 11:33:57 PM 42.1320 -87.1440 89° East 411 473 25,100 2,118 Climbing FlightAware ADS-B
Sat 11:34:42 PM 42.1330 -87.0240 89° East 420 483 26,800 2,118 Climbing FlightAware ADS-B
Sat 11:35:22 PM 42.1330 -86.9200 90° East 427 491 28,100 1,875 Climbing FlightAware ADS-B
Sat 11:36:02 PM 42.1340 -86.8120 89° East 433 498 29,300 1,906 Climbing FlightAware ADS-B
Sat 11:36:47 PM 42.1350 -86.6940 89° East 435 501 30,800 2,047 Climbing FlightAware ADS-B
Sat 11:37:27 PM 42.1350 -86.5850 90° East 430 495 32,200 2,188 Climbing FlightAware ADS-B
Sat 11:38:12 PM 42.1350 -86.4650 90° East 424 488 33,900 2,118 Climbing FlightAware ADS-B
Sat 11:38:52 PM 42.1360 -86.3610 89° East 419 482 35,200 1,875 Climbing FlightAware ADS-B
Sat 11:39:32 PM 42.1360 -86.2610 90° East 413 475 36,400 1,835 Climbing FlightAware ADS-B
Sat 11:40:17 PM 42.1360 -86.1400 90° East 406 467 37,800 1,624 Climbing FlightAware ADS-B
Sat 11:40:57 PM 42.1350 -86.0390 91° East 406 467 38,700 900 Climbing FlightAware ADS-B
Sat 11:41:37 PM 42.1350 -85.9380 90° East 409 471 39,000 212 Climbing FlightAware ADS-B
Sat 11:42:22 PM 42.1350 -85.8250 90° East 412 474 39,000  Level FlightAware ADS-B
Sat 11:43:02 PM 42.1350 -85.7230 90° East 414 476 39,000  Level FlightAware ADS-B
Sat 11:43:47 PM 42.1340 -85.6080 91° East 415 478 39,000  Level FlightAware ADS-B
Sat 11:44:27 PM 42.1330 -85.5020 91° East 416 479 39,000  Level FlightAware ADS-B
Sat 11:45:12 PM 42.1330 -85.3860 90° East 417 480 39,000  Level FlightAware ADS-B
Sat 11:45:52 PM 42.1320 -85.2830 91° East 417 480 39,000  Level FlightAware ADS-B
Sat 11:46:32 PM 42.1310 -85.1810 91° East 418 481 39,000  Level FlightAware ADS-B
Sat 11:47:12 PM 42.1300 -85.0760 91° East 418 481 39,000  Level FlightAware ADS-B
Sat 11:47:57 PM 42.1290 -84.9590 91° East 417 480 39,000  Level FlightAware ADS-B
Sat 11:48:37 PM 42.1280 -84.8570 91° East 418 481 39,000  Level FlightAware ADS-B
Sat 11:49:22 PM 42.1260 -84.7430 91° East 417 480 39,000  Level FlightAware ADS-B
Sat 11:50:02 PM 42.1250 -84.6350 91° East 417 480 39,000  Level FlightAware ADS-B
Sat 11:50:42 PM 42.1240 -84.5370 91° East 417 480 39,000  Level FlightAware ADS-B
Sat 11:51:27 PM 42.1290 -84.4140 87° East 422 486 39,000  Level FlightAware ADS-B
Sat 11:52:07 PM 42.1390 -84.3140 82° East 422 486 39,000  Level FlightAware ADS-B
Sat 11:52:52 PM 42.1520 -84.1950 82° East 422 486 39,000  Level FlightAware ADS-B
Sat 11:53:32 PM 42.1620 -84.0910 83° East 423 487 39,000  Level FlightAware ADS-B
Sat 11:54:12 PM 42.1730 -83.9830 82° East 423 487 39,000  Level FlightAware ADS-B
Sat 11:54:57 PM 42.1850 -83.8710 82° East 425 489 39,000  Level FlightAware ADS-B
Sat 11:55:47 PM 42.1960 -83.7570 83° East 426 490 39,000  Level FlightAware ADS-B
Sat 11:56:32 PM 42.2070 -83.6450 82° East 427 491 39,000  Level FlightAware ADS-B
Sat 11:57:12 PM 42.2180 -83.5310 83° East 427 491 39,000  Level FlightAware ADS-B
Sat 11:57:52 PM 42.2270 -83.4390 82° East 428 493 39,000  Level FlightAware ADS-B
Sat 11:58:37 PM 42.2390 -83.3140 83° East 428 493 39,000  Level FlightAware ADS-B
Sat 11:59:22 PM 42.2510 -83.1910 82° East 429 494 39,000  Level FlightAware ADS-B
Sun 12:00:02 AM 42.2610 -83.0810 83° East 430 495 39,000  Level FlightAware ADS-B
Sun 12:00:37 AM 42.2690 -82.9940 83° East 430 495 39,000  Level FlightAware ADS-B
Sun 12:01:27 AM 42.2810 -82.8650 83° East 429 494 39,000  Level FlightAware ADS-B
Sun 12:02:07 AM 42.2910 -82.7560 83° East 428 493 39,000  Level FlightAware ADS-B
Sun 12:02:47 AM 42.3010 -82.6500 83° East 428 493 39,000  Level FlightAware ADS-B
Sun 12:03:32 AM 42.3120 -82.5280 83° East 428 493 39,000  Level FlightAware ADS-B
Sun 12:04:17 AM 42.3220 -82.4060 84° East 429 494 39,000  Level FlightAware ADS-B
Sun 12:04:57 AM 42.3310 -82.3070 83° East 431 496 39,000  Level FlightAware ADS-B
Sun 12:05:42 AM 42.3420 -82.1830 83° East 433 498 39,000  Level FlightAware ADS-B
Sun 12:06:22 AM 42.3510 -82.0720 84° East 434 499 39,000  Level FlightAware ADS-B
Sun 12:06:57 AM 42.3590 -81.9730 84° East 435 501 39,000  Level FlightAware ADS-B
Sun 12:07:47 AM 42.3700 -81.8460 83° East 437 503 39,000  Level FlightAware ADS-B
Sun 12:08:27 AM 42.3790 -81.7350 84° East 438 504 39,000  Level FlightAware ADS-B
Sun 12:09:22 AM 42.3910 -81.5900 84° East 439 505 39,000  Level FlightAware ADS-B
Sun 12:10:02 AM 42.3990 -81.4780 84° East 440 506 39,000  Level FlightAware ADS-B
Sun 12:11:02 AM 42.4120 -81.3190 84° East 441 507 39,000  Level FlightAware ADS-B
Sun 12:11:47 AM 42.4220 -81.1860 84° East 442 509 39,000  Level FlightAware ADS-B
Sun 12:12:27 AM 42.4300 -81.0860 84° East 444 511 39,000  Level FlightAware ADS-B
Sun 12:13:07 AM 42.4380 -80.9700 85° East 445 512 39,000  Level FlightAware ADS-B
Sun 12:13:47 AM 42.4470 -80.8580 84° East 447 514 39,000  Level FlightAware ADS-B
Sun 12:14:32 AM 42.4550 -80.7440 85° East 448 516 39,000  Level FlightAware ADS-B
Sun 12:15:12 AM 42.4650 -80.6150 84° East 448 516 39,000  Level FlightAware ADS-B
Sun 12:15:57 AM 42.4720 -80.5000 85° East 447 514 39,000  Level FlightAware ADS-B
Sun 12:16:37 AM 42.4800 -80.3900 84° East 446 513 39,000  Level FlightAware ADS-B
Sun 12:17:22 AM 42.4890 -80.2630 84° East 445 512 39,000  Level FlightAware ADS-B
Sun 12:18:17 AM 42.4990 -80.1190 85° East 446 513 39,000  Level FlightAware ADS-B
Sun 12:18:57 AM 42.5060 -80.0040 85° East 447 514 39,000  Level FlightAware ADS-B
Sun 12:19:37 AM 42.5140 -79.8810 85° East 448 516 39,000  Level FlightAware ADS-B
Sun 12:20:17 AM 42.5220 -79.7700 84° East 450 518 39,000  Level FlightAware ADS-B
Sun 12:21:02 AM 42.5290 -79.6540 85° East 449 517 39,000  Level FlightAware ADS-B
Sun 12:21:42 AM 42.5370 -79.5300 85° East 444 511 39,000  Level FlightAware ADS-B
Sun 12:22:22 AM 42.5430 -79.4240 86° East 442 509 39,000  Level FlightAware ADS-B
Sun 12:23:07 AM 42.5500 -79.3130 85° East 442 509 39,000  Level FlightAware ADS-B
Sun 12:23:47 AM 42.5570 -79.2010 85° East 442 509 39,000  Level FlightAware ADS-B
Sun 12:24:27 AM 42.5630 -79.0900 86° East 442 509 39,000  Level FlightAware ADS-B
Sun 12:25:17 AM 42.5700 -78.9640 86° East 442 509 39,000  Level FlightAware ADS-B
Sun 12:25:57 AM 42.5780 -78.8360 85° East 442 509 39,000  Level FlightAware ADS-B
Sun 12:26:37 AM 42.5830 -78.7350 86° East 443 510 39,000  Level FlightAware ADS-B
Sun 12:27:17 AM 42.5890 -78.6380 85° East 443 510 39,000  Level FlightAware ADS-B
Sun 12:28:02 AM 42.5980 -78.4630 86° East 444 511 39,000  Level FlightAware ADS-B
Sun 12:28:47 AM 42.6040 -78.3350 86° East 444 511 39,000  Level FlightAware ADS-B
Sun 12:29:27 AM 42.6100 -78.2280 86° East 444 511 39,000  Level FlightAware ADS-B
Sun 12:30:12 AM 42.6160 -78.1030 86° East 442 509 39,000  Level FlightAware ADS-B
Sun 12:30:52 AM 42.6220 -77.9920 86° East 443 510 39,000  Level FlightAware ADS-B
Sun 12:31:37 AM 42.6280 -77.8640 86° East 442 509 39,000  Level FlightAware ADS-B
Sun 12:32:17 AM 42.6330 -77.7570 86° East 442 509 39,000  Level FlightAware ADS-B
Sun 12:32:57 AM 42.6380 -77.6480 86° East 443 510 39,000  Level FlightAware ADS-B
Sun 12:33:42 AM 42.6430 -77.5280 87° East 443 510 39,000  Level FlightAware ADS-B
Sun 12:34:22 AM 42.6480 -77.4230 86° East 443 510 39,000  Level FlightAware ADS-B
Sun 12:35:07 AM 42.6530 -77.3040 87° East 443 510 39,000  Level FlightAware ADS-B
Sun 12:35:47 AM 42.6580 -77.1860 87° East 442 509 39,000  Level FlightAware ADS-B
Sun 12:36:32 AM 42.6630 -77.0670 87° East 441 507 39,000  Level FlightAware ADS-B
Sun 12:37:12 AM 42.6670 -76.9490 87° East 441 507 39,000  Level FlightAware ADS-B
Sun 12:37:52 AM 42.6710 -76.8470 87° East 440 506 39,000  Level FlightAware ADS-B
Sun 12:38:52 AM 42.6770 -76.6790 87° East 439 505 39,000  Level FlightAware ADS-B
Sun 12:39:42 AM 42.6790 -76.5370 89° East 439 505 39,000  Level FlightAware ADS-B
Sun 12:40:27 AM 42.6770 -76.4140 91° East 440 506 39,000  Level FlightAware ADS-B
Sun 12:41:12 AM 42.6760 -76.2920 91° East 441 507 39,000  Level FlightAware ADS-B
Sun 12:41:47 AM 42.6750 -76.1980 91° East 442 509 39,000  Level FlightAware ADS-B
Sun 12:42:27 AM 42.6730 -76.0760 91° East 445 512 39,000  Level FlightAware ADS-B
Sun 12:43:17 AM 42.6710 -75.9290 91° East 448 516 39,000  Level FlightAware ADS-B
Sun 12:43:57 AM 42.6690 -75.8160 91° East 449 517 39,000  Level FlightAware ADS-B
Sun 12:44:42 AM 42.6670 -75.6920 91° East 450 518 39,000  Level FlightAware ADS-B
Sun 12:45:22 AM 42.6650 -75.5820 91° East 449 517 39,000  Level FlightAware ADS-B
Sun 12:46:07 AM 42.6620 -75.4500 92° East 447 514 39,000  Level FlightAware ADS-B
Sun 12:46:47 AM 42.6600 -75.3380 91° East 445 512 39,000  Level FlightAware ADS-B
Sun 12:47:27 AM 42.6580 -75.2290 91° East 444 511 39,000  Level FlightAware ADS-B
Sun 12:48:12 AM 42.6560 -75.1140 91° East 39,000  Level FlightAware ADS-B
Sun 12:48:40 AM 42.6534 -75.0218 92° East 443 510 39,000  Level FlightAware ADS-B
Sun 12:49:23 AM 42.6503 -74.9011 92° East 443 510 39,000  Level FlightAware ADS-B
Sun 12:49:55 AM 42.6481 -74.8146 92° East 441 507 39,000  Level FlightAware ADS-B
Sun 12:50:33 AM 42.6456 -74.7084 92° East 439 505 39,000  Level FlightAware ADS-B
Sun 12:51:30 AM 42.6417 -74.5538 92° East 439 505 39,000  Level FlightAware ADS-B
Sun 12:52:15 AM 42.6380 -74.4294 92° East 443 510 39,000 -395 Level FlightAware ADS-B
Sun 12:52:46 AM 42.6355 -74.3432 92° East 445 512 38,500 -1,403 Descending FlightAware ADS-B
Sun 12:53:32 AM 42.6320 -74.2190 92° East 447 514 37,200 -1,765 Descending FlightAware ADS-B
Sun 12:53:37 AM 42.6313 -74.2002 93° East 448 516 37,000 -514 Descending FlightAware ADS-B
Sun 12:54:07 AM 42.6290 -74.1300 93° East 445 512 36,900 -1,680 Descending FlightAware ADS-B
Sun 12:54:52 AM 42.6250 -73.9990 92° East 427 491 34,900 -2,341 Descending FlightAware ADS-B
Sun 12:55:29 AM 42.6214 -73.8953 93° East 432 497 33,700 -1,793 Descending FlightAware ADS-B
Sun 12:56:19 AM 42.6169 -73.7563 92° East 436 502 32,300 -1,723 Descending FlightAware ADS-B
Sun 12:57:03 AM 42.6125 -73.6331 93° East 447 514 31,000 -1,740 Descending FlightAware ADS-B
Sun 12:57:59 AM 42.6068 -73.4824 93° East 443 510 29,400 -1,706 Descending FlightAware ADS-B
Sun 12:58:52 AM 42.6020 -73.3450 93° East 437 503 27,900 -1,667 Descending FlightAware ADS-B
Sun 12:59:47 AM 42.5960 -73.2020 93° East 424 488 26,400 -1,200 Descending FlightAware ADS-B
Sun 01:00:32 AM 42.5940 -73.1440 93° East 437 503 25,900 -1,694 Descending FlightAware ADS-B
Sun 01:01:12 AM 42.5870 -72.9780 93° East 419 482 24,000 -2,064 Descending FlightAware ADS-B
Sun 01:02:37 AM 42.5780 -72.7500 93° East 406 467 21,600 -1,632 Descending FlightAware ADS-B
Sun 01:03:17 AM 42.5730 -72.6510 94° East 402 463 20,600 -1,482 Descending FlightAware ADS-B
Sun 01:04:02 AM 42.5690 -72.5390 93° East 398 458 19,500 -1,482 Descending FlightAware ADS-B
Sun 01:04:42 AM 42.5640 -72.4390 94° East 392 451 18,500 -1,482 Descending FlightAware ADS-B
Sun 01:05:27 AM 42.5590 -72.3320 94° East 389 448 17,400 -1,553 Descending FlightAware ADS-B
Sun 01:06:07 AM 42.5540 -72.2350 94° East 385 443 16,300 -1,553 Descending FlightAware ADS-B
Sun 01:06:52 AM 42.5490 -72.1240 93° East 371 427 15,200 -1,482 Descending FlightAware ADS-B
Sun 01:07:32 AM 42.5440 -72.0330 94° East 364 419 14,200 -1,500 Descending FlightAware ADS-B
Sun 01:08:12 AM 42.5360 -71.9450 97° East 361 415 13,200 -1,341 Descending FlightAware ADS-B
Sun 01:08:57 AM 42.5260 -71.8440 98° East 357 411 12,300 -1,200 Descending FlightAware ADS-B
Sun 01:09:37 AM 42.5180 -71.7570 97° East 350 403 11,500 -1,200 Descending FlightAware ADS-B
Sun 01:10:22 AM 42.5090 -71.6610 97° East 348 400 10,600 -776 Descending FlightAware ADS-B
Sun 01:11:02 AM 42.5010 -71.5750 97° East 332 382 10,400 -600 Descending FlightAware ADS-B
Sun 01:11:32 AM 42.4950 -71.5160 98° East 295 339 9,900 -764 Descending FlightAware ADS-B
Sun 01:11:57 AM 42.4910 -71.4720 97° East 277 319 9,700 -600 Descending FlightAware ADS-B
Sun 01:12:12 AM 42.4890 -71.4480 96° East 276 318 9,500 -667 Descending FlightAware ADS-B
Sun 01:12:42 AM 42.4840 -71.3970 98° East 274 315 9,200 -764 Descending FlightAware ADS-B
Sun 01:13:07 AM 42.4800 -71.3520 97° East 269 310 8,800 -764 Descending FlightAware ADS-B
Sun 01:13:37 AM 42.4750 -71.3020 98° East 262 302 8,500 -655 Descending FlightAware ADS-B
Sun 01:14:02 AM 42.4720 -71.2640 96° East 259 298 8,200 -655 Descending FlightAware ADS-B
Sun 01:14:32 AM 42.4670 -71.2160 98° East 258 297 7,900 -600 Descending FlightAware ADS-B
Sun 01:15:02 AM 42.4620 -71.1680 98° East 257 296 7,600 -667 Descending FlightAware ADS-B
Sun 01:15:17 AM 42.4600 -71.1420 96° East 251 289 7,400 -750 Descending FlightAware ADS-B
Sun 01:15:42 AM 42.4570 -71.1070 97° East 238 274 7,100 -600 Descending FlightAware ADS-B
Sun 01:16:07 AM 42.4530 -71.0690 98° East 229 264 6,900 -545 Descending FlightAware ADS-B
Sun 01:16:37 AM 42.4490 -71.0300 98° East 224 258 6,600 -600 Descending FlightAware ADS-B
Sun 01:17:07 AM 42.4310 -70.9930 123° Southeast 227 261 6,300 -655 Descending FlightAware ADS-B
Sun 01:17:32 AM 42.4160 -70.9650 126° Southeast 223 257 6,000 -873 Descending FlightAware ADS-B
Sun 01:18:02 AM 42.4000 -70.9360 127° Southeast 218 251 5,500 -1,309 Descending FlightAware ADS-B
Sun 01:18:27 AM 42.3850 -70.9080 126° Southeast 216 249 4,800 -1,867 Descending FlightAware ADS-B
Sun 01:18:47 AM 42.3720 -70.8830 125° Southeast 217 250 4,100 -1,569 Descending FlightAware ADS-B
Sun 01:19:32 AM 42.3540 -70.8520 128° Southeast 212 244 3,100 -857 Descending FlightAware ADS-B
Sun 01:19:57 AM 42.3400 -70.8260 126° Southeast 212 244 3,100 -818 Level FlightAware ADS-B
Sun 01:20:38 AM 42.2992 -70.8233 126° Southeast 170 196 2,200 -673 Descending Boston Center
Sun 01:21:35 AM 42.2833 -70.8833 250° West 191 220 2,000 -414 Descending KA90
Sun 01:22:34 AM 42.3167 -70.9333 312° West 141 162 1,400 -650 Descending KA90
Sun 01:23:35 AM 42.3333 -70.9667 304° West 132 152 700 -689 Descending KA90

Login

Don't have an account? Register now (free) for customized features, flight alerts, and more!